Time;durP1;ratioP1;P1;durP2;ratioP2;P2;SDS_P1;SDS_P2;PMS_P1;PMS_P2;Temp;Humidity;BMP_temperature;BMP_pressure;BME280_temperature;BME280_humidity;BME280_pressure;Samples;Min_cycle;Max_cycle;Signal;HPM_P1;HPM_P2
2021/04/21 00:00:24;;;;;;;3.87;3.70;;;;;;;7.29;75.56;101226.91;4421150;32;20147;-70
2021/04/21 00:02:50;;;;;;;4.28;3.97;;;;;;;7.31;75.26;101224.25;4427927;32;20131;-69
2021/04/21 00:05:16;;;;;;;3.40;3.30;;;;;;;7.30;75.35;101220.78;4425702;32;20301;-70
2021/04/21 00:07:41;;;;;;;4.18;3.92;;;;;;;7.32;76.00;101221.59;4420681;32;20072;-71
2021/04/21 00:10:08;;;;;;;4.87;4.60;;;;;;;7.32;75.77;101218.16;4415835;32;20104;-68
2021/04/21 00:12:33;;;;;;;4.10;3.90;;;;;;;7.32;75.36;101221.59;4419187;32;20118;-68
2021/04/21 00:14:59;;;;;;;4.60;4.40;;;;;;;6.61;75.76;101097.59;4414004;32;20590;-69
2021/04/21 00:17:24;;;;;;;4.47;4.28;;;;;;;7.35;75.89;101210.19;4413300;32;20072;-70
2021/04/21 00:19:52;;;;;;;3.80;3.70;;;;;;;7.38;75.14;101212.72;4419487;32;20550;-69
2021/04/21 00:22:17;;;;;;;4.30;4.10;;;;;;;7.35;74.99;101210.19;4424831;32;20162;-70
2021/04/21 00:24:43;;;;;;;3.80;3.67;;;;;;;7.32;75.71;101207.69;4413797;32;20086;-70
2021/04/21 00:27:09;;;;;;;3.65;3.50;;;;;;;7.29;75.48;101211.22;4422249;32;20071;-68
2021/04/21 00:29:39;;;;;;;3.70;3.60;;;;;;;7.27;75.26;101213.03;4415656;32;20141;-68
2021/04/21 00:32:04;;;;;;;3.70;3.60;;;;;;;7.23;75.81;101206.19;4407060;32;20068;-69
2021/04/21 00:34:30;;;;;;;4.55;4.32;;;;;;;7.13;75.04;101195.19;4415520;32;20075;-69
2021/04/21 00:36:56;;;;;;;3.70;3.60;;;;;;;7.18;75.06;101205.50;4420069;32;20069;-70
2021/04/21 00:39:21;;;;;;;5.43;5.07;;;;;;;7.16;75.57;101209.91;4413200;32;20615;-69
2021/04/21 00:42:29;;;;;;;4.53;4.30;;;;;;;7.17;75.64;101201.16;4422909;32;20665;-70
2021/04/21 00:45:08;;;;;;;4.18;3.97;;;;;;;7.13;75.19;101212.59;4412074;32;20100;-70
2021/04/21 00:47:36;;;;;;;10.18;4.05;;;;;;;7.09;75.88;101206.59;4433785;32;20174;-70
2021/04/21 00:50:14;;;;;;;4.03;3.85;;;;;;;7.07;75.63;101207.56;4416299;32;20117;-69
2021/04/21 00:52:52;;;;;;;3.47;3.37;;;;;;;7.06;75.36;101204.09;4434725;32;20060;-69
2021/04/21 00:55:41;;;;;;;4.10;3.90;;;;;;;7.08;75.22;101207.53;4430838;32;20411;-69
2021/04/21 00:58:37;;;;;;;4.03;3.83;;;;;;;7.11;76.50;101207.41;4431388;32;20101;-69
2021/04/21 01:01:03;;;;;;;3.65;3.53;;;;;;;7.17;75.98;101209.00;4440970;32;20076;-70
2021/04/21 01:03:29;;;;;;;4.20;3.95;;;;;;;7.18;76.02;101203.75;4419467;32;20069;-70
2021/04/21 01:06:00;;;;;;;4.90;4.65;;;;;;;7.09;76.10;101196.16;4408846;32;20072;-69
2021/04/21 01:08:33;;;;;;;4.55;4.15;;;;;;;6.72;76.11;101129.44;4416856;32;20153;-70
2021/04/21 01:11:03;;;;;;;3.60;3.50;;;;;;;7.09;76.45;101196.16;4415649;32;20088;-70
2021/04/21 01:13:44;;;;;;;4.03;3.83;;;;;;;7.11;76.09;101194.38;4417709;32;20081;-70
2021/04/21 01:16:11;;;;;;;3.45;3.35;;;;;;;7.17;75.71;101183.75;4414088;32;20246;-70
2021/04/21 01:18:38;;;;;;;3.78;3.58;;;;;;;7.13;75.66;101184.72;4431405;32;20107;-70
2021/04/21 01:21:22;;;;;;;4.47;4.28;;;;;;;7.17;76.36;101185.50;4417622;32;20097;-70
2021/04/21 01:24:03;;;;;;;3.67;3.58;;;;;;;7.16;75.73;101186.41;4417971;32;20183;-70
2021/04/21 01:26:50;;;;;;;5.90;5.35;;;;;;;7.10;76.11;101184.84;4425633;32;20096;-70
2021/04/21 01:29:21;;;;;;;3.87;3.72;;;;;;;7.06;76.19;101178.00;4428663;32;21025;-67
2021/04/21 01:31:47;;;;;;;4.03;3.83;;;;;;;7.02;75.78;101181.59;4425222;32;20179;-67
2021/04/21 01:34:13;;;;;;;3.42;3.33;;;;;;;6.97;75.71;101196.53;4421856;32;20073;-67
2021/04/21 01:36:39;;;;;;;4.53;3.83;;;;;;;6.93;75.89;101187.09;4417691;32;20879;-67
2021/04/21 01:39:04;;;;;;;3.33;3.22;;;;;;;6.87;76.44;101182.91;4421208;32;20075;-67
2021/04/21 01:41:47;;;;;;;5.50;5.20;;;;;;;6.78;77.20;101177.97;4416644;32;20865;-69
2021/04/21 01:44:13;;;;;;;;;;;;;;;6.64;76.93;101178.34;4423570;32;20116;-70
2021/04/21 01:46:40;;;;;;;3.70;3.60;;;;;;;6.54;77.54;101184.72;4431150;32;20022;-70
2021/04/21 01:49:23;;;;;;;4.00;3.80;;;;;;;6.46;77.67;101174.50;4426100;32;20069;-70
2021/04/21 01:52:12;;;;;;;3.70;3.55;;;;;;;6.42;77.81;101172.87;4431130;32;20140;-69
2021/04/21 01:54:38;;;;;;;3.40;3.30;;;;;;;5.37;77.46;101008.03;4415977;32;20092;-68
2021/04/21 01:57:07;;;;;;;3.78;3.58;;;;;;;6.41;77.98;101178.12;4414441;32;20117;-68
2021/04/21 01:59:39;;;;;;;4.12;3.92;;;;;;;6.38;78.18;101174.69;4421917;32;20088;-70
2021/04/21 02:02:30;;;;;;;4.03;3.83;;;;;;;6.39;78.15;101179.03;4425389;32;20063;-70
2021/04/21 02:05:05;;;;;;;3.95;3.75;;;;;;;6.38;78.22;101184.28;4419536;32;20277;-69
2021/04/21 02:08:08;;;;;;;3.72;3.55;;;;;;;6.38;77.84;101179.91;4442386;32;20538;-69
2021/04/21 02:10:47;;;;;;;3.50;3.40;;;;;;;6.36;77.85;101186.94;4448353;32;20659;-70
2021/04/21 02:13:41;;;;;;;4.28;3.95;;;;;;;6.36;77.69;101184.31;4418154;32;20072;-70
2021/04/21 02:16:25;;;;;;;;;;;;;;;6.33;78.03;101188.75;4431111;32;20065;-67
2021/04/21 02:19:05;;;;;;;3.42;3.33;;;;;;;6.30;78.29;101186.25;4419900;32;19956;-68
2021/04/21 02:21:36;;;;;;;4.12;3.78;;;;;;;6.21;78.24;101171.69;4441703;32;20137;-68
2021/04/21 02:24:14;;;;;;;3.83;3.62;;;;;;;6.25;78.53;101181.12;4426276;32;20098;-68
2021/04/21 02:26:51;;;;;;;4.82;3.42;;;;;;;6.21;79.18;101187.31;4422338;32;20064;-68
2021/04/21 02:29:44;;;;;;;4.05;3.85;;;;;;;6.19;79.67;101195.22;4415067;32;20073;-66
2021/04/21 02:32:32;;;;;;;3.35;3.20;;;;;;;6.22;78.80;101196.88;4422670;32;20594;-69
2021/04/21 02:35:16;;;;;;;3.67;3.58;;;;;;;6.16;79.03;101195.28;4434691;32;20090;-68
2021/04/21 02:37:44;;;;;;;5.30;3.50;;;;;;;6.09;79.52;101200.69;4421183;32;20092;-67
2021/04/21 02:40:18;;;;;;;3.65;3.45;;;;;;;6.04;79.40;101208.62;4432791;32;20079;-68
2021/04/21 02:43:09;;;;;;;3.30;3.20;;;;;;;6.01;79.34;101203.47;4444216;32;20198;-68
2021/04/21 02:45:55;;;;;;;5.00;4.60;;;;;;;5.64;79.59;101141.84;4418105;32;20084;-67
2021/04/21 02:48:27;;;;;;;4.78;4.57;;;;;;;5.88;79.59;101191.62;4417739;32;20061;-70
2021/04/21 02:51:02;;;;;;;3.62;3.42;;;;;;;5.89;79.59;101195.94;4418018;32;20904;-70
2021/04/21 02:53:40;;;;;;;3.37;3.28;;;;;;;5.83;79.71;101188.28;4418622;32;20088;-70
2021/04/21 02:56:36;;;;;;;16.40;5.05;;;;;;;5.88;80.05;101204.66;4415811;32;20076;-67
2021/04/21 02:59:27;;;;;;;3.70;3.50;;;;;;;5.90;79.86;101197.66;4416330;32;20099;-67
2021/04/21 03:02:15;;;;;;;4.80;4.50;;;;;;;5.89;79.67;101196.78;4425311;32;20091;-67
2021/04/21 03:04:47;;;;;;;3.50;3.40;;;;;;;5.71;79.73;101159.06;4413961;32;20581;-68
2021/04/21 03:07:19;;;;;;;3.20;3.10;;;;;;;5.92;79.76;101193.25;4437048;32;20637;-68
2021/04/21 03:09:50;;;;;;;4.40;4.20;;;;;;;5.95;79.67;101201.03;4414396;32;20309;-68
2021/04/21 03:12:17;;;;;;;3.30;3.20;;;;;;;5.94;79.68;101197.53;4420471;32;20910;-67
2021/04/21 03:14:46;;;;;;;4.20;3.90;;;;;;;5.96;79.60;101190.56;4418648;32;20061;-68
2021/04/21 03:17:12;;;;;;;3.70;3.60;;;;;;;5.91;79.28;101189.81;4415631;32;20170;-67
2021/04/21 03:19:40;;;;;;;4.70;4.50;;;;;;;5.60;79.78;101146.28;4416732;32;20080;-67
2021/04/21 03:22:13;;;;;;;3.85;3.65;;;;;;;5.79;79.80;101201.38;4417792;32;20061;-67
2021/04/21 03:24:39;;;;;;;4.18;4.00;;;;;;;5.87;80.36;101202.94;4421377;32;20881;-68
2021/04/21 03:27:05;;;;;;;3.50;3.35;;;;;;;5.86;80.39;101206.44;4420055;32;20091;-68
2021/04/21 03:29:40;;;;;;;3.78;3.58;;;;;;;5.91;80.39;101212.38;4421945;32;20083;-68
2021/04/21 03:32:08;;;;;;;3.78;3.60;;;;;;;5.91;80.00;101214.97;4420527;32;20077;-68
2021/04/21 03:34:34;;;;;;;3.80;3.58;;;;;;;5.58;79.95;101161.06;4423191;32;20073;-66
2021/04/21 03:36:59;;;;;;;4.40;4.12;;;;;;;5.83;80.06;101212.56;4415430;32;20079;-67
2021/04/21 03:39:25;;;;;;;3.12;3.03;;;;;;;5.80;80.13;101212.66;4417593;32;20075;-67
2021/04/21 03:41:50;;;;;;;3.42;3.28;;;;;;;5.79;80.88;101214.41;4417896;32;20069;-66
2021/04/21 03:44:15;;;;;;;3.00;2.90;;;;;;;5.82;80.85;101208.25;4414465;32;20272;-67
2021/04/21 03:46:41;;;;;;;3.53;3.33;;;;;;;5.86;81.16;101203.84;4416038;32;20704;-67
2021/04/21 03:49:07;;;;;;;3.45;3.33;;;;;;;5.87;80.98;101203.78;4419428;32;20079;-68
2021/04/21 03:51:32;;;;;;;3.92;3.72;;;;;;;5.93;80.82;101203.66;4416241;32;20662;-67
2021/04/21 03:53:57;;;;;;;3.33;3.22;;;;;;;5.95;81.05;101198.41;4416956;32;20180;-68
2021/04/21 03:56:24;;;;;;;4.80;4.50;;;;;;;5.69;81.43;101163.44;4418449;32;20075;-68
2021/04/21 03:58:50;;;;;;;3.97;3.53;;;;;;;5.97;80.77;101194.91;4417219;32;20072;-67
2021/04/21 04:01:20;;;;;;;4.85;4.65;;;;;;;6.01;80.78;101205.22;4416054;32;20088;-67
2021/04/21 04:03:47;;;;;;;4.87;4.55;;;;;;;6.02;80.41;101196.53;4415829;32;20079;-67
2021/04/21 04:06:20;;;;;;;3.25;3.15;;;;;;;6.05;80.70;101205.09;4431891;32;20068;-67
2021/04/21 04:09:01;;;;;;;3.50;3.40;;;;;;;6.09;80.63;101198.91;4413129;32;20078;-67
2021/04/21 04:11:29;;;;;;;5.47;5.05;;;;;;;6.14;80.43;101201.44;4423375;32;20474;-66
2021/04/21 04:13:58;;;;;;;3.90;3.70;;;;;;;5.81;80.37;101141.41;4417925;32;20100;-67
2021/04/21 04:16:24;;;;;;;3.30;3.20;;;;;;;6.20;80.20;101206.47;4407633;32;20119;-68
2021/04/21 04:18:49;;;;;;;4.35;4.15;;;;;;;6.23;80.36;101206.37;4416816;32;20826;-66
2021/04/21 04:21:15;;;;;;;4.28;4.05;;;;;;;6.22;79.97;101204.69;4419931;32;20068;-68
2021/04/21 04:23:42;;;;;;;3.55;3.45;;;;;;;6.30;79.79;101217.53;4418581;32;20168;-70
2021/04/21 04:26:08;;;;;;;3.75;3.55;;;;;;;6.30;79.66;101207.94;4437875;32;20093;-67
2021/04/21 04:28:33;;;;;;;4.20;4.00;;;;;;;6.30;79.60;101209.72;4418163;32;20098;-66
2021/04/21 04:31:00;;;;;;;6.37;4.00;;;;;;;6.05;79.98;101175.59;4417162;32;20092;-65
2021/04/21 04:33:26;;;;;;;3.92;3.72;;;;;;;6.27;80.58;101215.81;4413558;32;20065;-65
2021/04/21 04:35:51;;;;;;;4.07;3.87;;;;;;;6.25;79.95;101217.63;4432518;32;20179;-66
2021/04/21 04:38:17;;;;;;;4.00;3.80;;;;;;;6.29;80.22;101224.47;4413133;32;20171;-66
2021/04/21 04:40:43;;;;;;;4.53;4.20;;;;;;;6.27;80.21;101214.97;4420572;32;20091;-68
2021/04/21 04:43:08;;;;;;;4.07;3.87;;;;;;;6.34;80.04;101219.16;4413229;32;20069;-67
2021/04/21 04:45:34;;;;;;;3.25;3.15;;;;;;;5.45;79.49;101068.53;4420479;32;20466;-66
2021/04/21 04:48:03;;;;;;;3.70;3.60;;;;;;;5.41;79.56;101061.69;4419062;32;20218;-68
2021/04/21 04:50:29;;;;;;;3.60;3.47;;;;;;;6.46;79.98;101221.44;4416973;32;20092;-68
2021/04/21 04:52:56;;;;;;;3.33;3.22;;;;;;;6.48;79.91;101226.63;4429530;32;20569;-68
2021/04/21 04:55:22;;;;;;;3.85;3.65;;;;;;;6.52;79.81;101229.09;4413282;32;20104;-68
2021/04/21 04:57:49;;;;;;;3.60;3.50;;;;;;;6.56;79.36;101214.22;4419088;32;20084;-68
2021/04/21 05:00:16;;;;;;;3.47;3.37;;;;;;;6.28;79.66;101183.69;4415268;32;20621;-68
2021/04/21 05:03:01;;;;;;;3.40;3.30;;;;;;;6.64;79.31;101227.06;4420765;32;20092;-68
2021/04/21 05:05:26;;;;;;;4.10;3.90;;;;;;;6.69;79.43;101231.22;4415405;32;20604;-66
2021/04/21 05:08:03;;;;;;;3.75;3.62;;;;;;;6.76;79.33;101232.78;4417877;32;20108;-66
2021/04/21 05:10:50;;;;;;;3.35;3.25;;;;;;;6.86;79.29;101232.53;4421222;32;20194;-66
2021/04/21 05:13:20;;;;;;;3.47;3.37;;;;;;;6.97;78.93;101233.06;4412723;32;20076;-66
2021/04/21 05:15:51;;;;;;;3.72;3.62;;;;;;;7.03;78.18;101239.88;4418234;32;20199;-66
2021/04/21 05:18:22;;;;;;;4.43;4.18;;;;;;;7.10;78.64;101249.25;4441481;32;20476;-64
2021/04/21 05:21:00;;;;;;;4.68;4.45;;;;;;;7.19;78.45;101241.97;4438642;32;20127;-66
2021/04/21 05:23:53;;;;;;;3.78;3.60;;;;;;;7.31;77.67;101245.97;4447303;32;20171;-67
2021/04/21 05:26:56;;;;;;;4.10;3.83;;;;;;;7.43;77.70;101247.37;4430286;32;20096;-68
2021/04/21 05:29:41;;;;;;;3.65;3.50;;;;;;;7.56;77.50;101251.34;4443152;32;20100;-68
2021/04/21 05:32:40;;;;;;;3.37;3.25;;;;;;;7.70;76.90;101255.28;4431382;32;20087;-66
2021/04/21 05:35:41;;;;;;;3.70;3.50;;;;;;;7.86;76.00;101255.62;4429993;32;20100;-67
2021/04/21 05:38:31;;;;;;;4.18;3.97;;;;;;;7.91;76.55;101257.19;4430997;32;20198;-66
2021/04/21 05:41:34;;;;;;;4.10;3.90;;;;;;;8.04;76.12;101252.44;4442699;32;20072;-66
2021/04/21 05:44:52;;;;;;;3.30;3.20;;;;;;;8.26;76.20;101252.59;4444175;32;20079;-68
2021/04/21 05:47:33;;;;;;;3.80;3.60;;;;;;;8.49;75.05;101251.81;4437547;32;20075;-67
2021/04/21 05:50:36;;;;;;;4.05;3.85;;;;;;;8.65;74.49;101256.53;4445831;32;20064;-66
2021/04/21 05:53:08;;;;;;;4.12;3.92;;;;;;;8.85;74.30;101247.97;4430805;32;20200;-68
2021/04/21 05:55:57;;;;;;;4.80;4.45;;;;;;;9.01;74.82;101256.97;4428635;32;20546;-68
2021/04/21 05:58:50;;;;;;;4.30;4.10;;;;;;;8.89;74.45;101253.03;4436454;32;20249;-67
2021/04/21 06:01:19;;;;;;;;;;;;;;;8.64;75.42;101260.03;4435039;32;20087;-68
2021/04/21 06:03:48;;;;;;;20.10;4.18;;;;;;;8.63;76.20;101259.19;4433248;32;19979;-67
2021/04/21 06:06:13;;;;;;;4.68;4.47;;;;;;;8.34;76.73;101232.25;4420267;32;21905;-68
2021/04/21 06:08:38;;;;;;;4.43;4.12;;;;;;;8.61;76.56;101263.63;4417477;32;20084;-68
2021/04/21 06:11:15;;;;;;;5.03;4.72;;;;;;;8.85;75.20;101261.06;4418128;32;20065;-68
2021/04/21 06:13:40;;;;;;;4.20;4.00;;;;;;;8.97;74.46;101263.22;4415020;32;20081;-68
2021/04/21 06:16:05;;;;;;;5.15;4.85;;;;;;;8.68;74.91;101253.78;4416485;32;20146;-69
2021/04/21 06:18:31;;;;;;;4.03;3.83;;;;;;;8.82;75.58;101263.75;4417650;32;20071;-69
2021/04/21 06:20:56;;;;;;;4.55;4.25;;;;;;;8.95;74.83;101265.03;4420630;32;20864;-67
2021/04/21 06:23:26;;;;;;;4.12;3.92;;;;;;;8.93;75.16;101261.63;4404139;32;20210;-70
2021/04/21 06:26:02;;;;;;;4.22;3.92;;;;;;;9.18;74.02;101269.41;4430804;32;20553;-70
2021/04/21 06:28:27;;;;;;;4.85;4.65;;;;;;;8.99;75.18;101274.50;4422616;32;20145;-70
2021/04/21 06:31:07;;;;;;;4.25;4.05;;;;;;;8.99;74.60;101271.88;4415712;32;20080;-67
2021/04/21 06:33:36;;;;;;;4.10;3.90;;;;;;;8.86;75.57;101279.31;4414511;32;20065;-69
2021/04/21 06:36:02;;;;;;;3.70;3.55;;;;;;;8.91;76.45;101281.78;4415952;32;20081;-67
2021/04/21 06:38:29;;;;;;;4.30;4.00;;;;;;;9.15;75.67;101285.25;4412616;32;20088;-68
2021/04/21 06:40:54;;;;;;;4.55;4.25;;;;;;;9.27;74.29;101287.41;4422365;32;20483;-68
2021/04/21 06:43:24;;;;;;;4.68;4.47;;;;;;;9.43;73.80;101279.84;4413489;32;20091;-67
2021/04/21 06:45:50;;;;;;;4.20;4.00;;;;;;;9.39;73.62;101281.72;4423705;32;20108;-68
2021/04/21 06:48:16;;;;;;;4.20;4.00;;;;;;;9.28;75.20;101289.16;4418561;32;20419;-70
2021/04/21 06:50:41;;;;;;;5.25;4.82;;;;;;;9.38;75.36;101292.25;4418327;32;20077;-68
2021/04/21 06:53:08;;;;;;;3.97;3.80;;;;;;;9.13;73.95;101235.56;4414567;32;20064;-67
2021/04/21 06:55:33;;;;;;;4.03;3.83;;;;;;;9.79;72.77;101288.03;4416434;32;20172;-67
2021/04/21 06:58:00;;;;;;;5.43;5.03;;;;;;;9.92;72.01;101288.44;4413232;32;20129;-67
2021/04/21 07:00:26;;;;;;;5.82;4.75;;;;;;;9.77;71.17;101247.09;4417593;32;20061;-67
2021/04/21 07:02:53;;;;;;;4.35;4.15;;;;;;;10.31;71.70;101289.50;4421853;32;20085;-67
2021/04/21 07:05:27;;;;;;;5.47;5.05;;;;;;;10.45;70.38;101297.66;4417611;32;20077;-68
2021/04/21 07:08:16;;;;;;;4.93;4.53;;;;;;;10.61;70.59;101287.34;4432544;32;20219;-70
2021/04/21 07:10:45;;;;;;;4.95;4.65;;;;;;;10.85;69.53;101289.84;4419139;32;20136;-68
2021/04/21 07:13:22;;;;;;;5.20;4.80;;;;;;;11.04;69.10;101293.34;4416151;32;20158;-68
2021/04/21 07:15:52;;;;;;;4.30;4.10;;;;;;;11.10;67.82;101290.44;4412974;32;20082;-67
2021/04/21 07:18:19;;;;;;;4.60;4.32;;;;;;;11.08;67.92;101281.78;4417305;32;20100;-68
2021/04/21 07:20:44;;;;;;;9.75;5.50;;;;;;;11.21;66.93;101295.22;4413860;32;20483;-68
2021/04/21 07:23:11;;;;;;;5.03;4.82;;;;;;;11.60;67.23;101286.41;4416010;32;20104;-67
2021/04/21 07:25:37;;;;;;;5.30;4.90;;;;;;;11.87;66.25;101292.16;4414536;32;21066;-69
2021/04/21 07:28:03;;;;;;;4.60;4.40;;;;;;;11.61;64.82;101290.78;4415234;32;20158;-66
2021/04/21 07:30:29;;;;;;;5.35;5.05;;;;;;;11.33;66.03;101264.91;4406361;32;20148;-67
2021/04/21 07:32:55;;;;;;;4.85;4.55;;;;;;;11.55;66.34;101291.91;4411841;32;20072;-66
2021/04/21 07:35:23;;;;;;;5.90;4.78;;;;;;;11.98;65.74;101292.50;4414848;32;20507;-66
2021/04/21 07:37:49;;;;;;;5.32;5.03;;;;;;;12.06;63.88;101286.88;4413314;32;20382;-67
2021/04/21 07:40:22;;;;;;;4.15;3.95;;;;;;;12.05;64.90;101287.81;4403297;32;20891;-67
2021/04/21 07:42:47;;;;;;;4.30;4.05;;;;;;;12.54;64.70;101287.97;4424221;32;20069;-67
2021/04/21 07:45:13;;;;;;;5.75;5.43;;;;;;;12.55;63.20;101279.16;4413006;32;20802;-69
2021/04/21 07:47:38;;;;;;;4.47;4.07;;;;;;;12.83;61.46;101283.00;4417470;32;20079;-69
2021/04/21 07:50:05;;;;;;;5.97;5.68;;;;;;;12.70;61.95;101288.06;4417288;32;20824;-68
2021/04/21 07:52:37;;;;;;;4.60;4.40;;;;;;;12.66;62.19;101285.66;4417300;32;20122;-69
2021/04/21 07:55:16;;;;;;;4.85;4.65;;;;;;;12.30;63.86;101286.59;4431336;32;20095;-68
2021/04/21 07:57:44;;;;;;;5.62;5.32;;;;;;;12.69;62.20;101289.00;4431770;32;20130;-71
2021/04/21 08:00:11;;;;;;;5.22;4.85;;;;;;;12.31;61.37;101283.91;4418545;32;20073;-69
2021/04/21 08:02:36;;;;;;;4.43;4.22;;;;;;;12.78;62.61;101291.13;4410418;32;20076;-70
2021/04/21 08:05:11;;;;;;;4.93;4.62;;;;;;;12.96;60.54;101291.97;4415426;32;20624;-69
2021/04/21 08:07:41;;;;;;;4.78;4.47;;;;;;;13.12;59.84;101296.41;4411150;32;20121;-67
2021/04/21 08:10:15;;;;;;;4.40;4.20;;;;;;;13.52;59.86;101289.03;4417517;32;20087;-67
2021/04/21 08:12:41;;;;;;;5.03;4.80;;;;;;;13.70;58.17;101289.78;4438599;32;20732;-66
2021/04/21 08:15:10;;;;;;;5.40;5.10;;;;;;;13.90;58.81;101281.59;4417539;32;20152;-68
2021/04/21 08:17:58;;;;;;;5.90;5.50;;;;;;;13.90;57.61;101288.69;4407561;32;20088;-66
2021/04/21 08:20:29;;;;;;;5.03;4.65;;;;;;;14.24;57.40;101286.75;4418872;32;20569;-66
2021/04/21 08:22:55;;;;;;;5.50;5.10;;;;;;;13.83;57.25;101290.81;4412258;32;20177;-66
2021/04/21 08:25:21;;;;;;;5.80;5.30;;;;;;;13.89;56.67;101286.97;4419474;32;20071;-67
2021/04/21 08:27:49;;;;;;;4.93;4.70;;;;;;;13.63;56.85;101243.59;4411536;32;20081;-66
2021/04/21 08:30:15;;;;;;;4.75;4.55;;;;;;;13.86;56.50;101292.44;4416946;32;20068;-66
2021/04/21 08:32:41;;;;;;;5.43;5.12;;;;;;;13.89;56.99;101290.47;4414916;32;20091;-67
2021/04/21 08:35:07;;;;;;;4.97;4.68;;;;;;;13.57;57.53;101293.12;4418133;32;20092;-67
2021/04/21 08:37:32;;;;;;;4.70;4.50;;;;;;;13.48;57.31;101263.75;4411061;32;20091;-70
2021/04/21 08:39:57;;;;;;;4.70;4.50;;;;;;;13.16;59.27;101303.22;4426789;32;20087;-68
2021/04/21 08:42:23;;;;;;;5.37;5.07;;;;;;;13.29;59.25;101311.31;4412937;32;20077;-69
2021/04/21 08:44:48;;;;;;;4.72;4.43;;;;;;;13.20;59.96;101301.28;4426914;32;20069;-67
2021/04/21 08:47:15;;;;;;;6.25;5.85;;;;;;;12.96;60.88;101299.00;4410982;32;20851;-68
2021/04/21 08:49:41;;;;;;;5.22;4.95;;;;;;;13.29;60.31;101303.41;4412134;32;20090;-67
2021/04/21 08:52:06;;;;;;;5.10;4.80;;;;;;;13.12;61.12;101309.59;4417228;32;20188;-67
2021/04/21 08:54:32;;;;;;;5.20;4.90;;;;;;;13.27;59.34;101300.88;4413530;32;20884;-67
2021/04/21 08:56:58;;;;;;;5.05;4.62;;;;;;;13.42;59.33;101307.13;4415622;32;20075;-67
2021/04/21 08:59:23;;;;;;;4.70;4.50;;;;;;;13.46;59.76;101306.03;4412388;32;20233;-67
2021/04/21 09:01:48;;;;;;;5.20;4.95;;;;;;;13.75;57.89;101309.72;4430515;32;20080;-67
2021/04/21 09:04:14;;;;;;;5.05;4.75;;;;;;;14.11;58.07;101310.34;4410509;32;20073;-67
2021/04/21 09:06:40;;;;;;;4.90;4.62;;;;;;;13.73;58.58;101311.59;4413848;32;20709;-67
2021/04/21 09:09:05;;;;;;;4.55;4.35;;;;;;;13.70;59.20;101310.91;4411917;32;20071;-67
2021/04/21 09:11:32;;;;;;;5.50;5.20;;;;;;;13.75;59.20;101311.47;4414959;32;20717;-68
2021/04/21 09:13:58;;;;;;;5.60;5.28;;;;;;;14.11;57.77;101313.84;4410640;32;20112;-67
2021/04/21 09:16:23;;;;;;;5.85;5.55;;;;;;;14.02;57.78;101310.88;4404919;32;20958;-67
2021/04/21 09:18:48;;;;;;;6.18;5.78;;;;;;;14.08;57.24;101314.00;4411980;32;20064;-67
2021/04/21 09:21:23;;;;;;;5.18;4.87;;;;;;;14.30;56.82;101312.78;4416646;32;20102;-67
2021/04/21 09:23:49;;;;;;;6.57;6.05;;;;;;;14.11;57.79;101315.63;4409908;32;20089;-67
2021/04/21 09:26:24;;;;;;;5.82;5.43;;;;;;;13.91;58.50;101316.75;4414039;32;20155;-67
2021/04/21 09:28:53;;;;;;;5.05;4.85;;;;;;;14.41;55.87;101310.34;4413544;32;20613;-67
2021/04/21 09:31:23;;;;;;;4.80;4.53;;;;;;;14.52;55.10;101312.38;4416120;32;20092;-67
2021/04/21 09:33:53;;;;;;;5.32;5.03;;;;;;;15.04;55.21;101311.09;4413381;32;20592;-67
2021/04/21 09:36:35;;;;;;;6.90;6.32;;;;;;;15.60;51.88;101314.63;4421959;32;20083;-68
2021/04/21 09:39:12;;;;;;;5.47;5.07;;;;;;;15.47;52.95;101311.03;4412188;32;20206;-67
2021/04/21 09:41:37;;;;;;;5.87;5.57;;;;;;;15.50;53.18;101314.34;4419346;32;20126;-68
2021/04/21 09:44:27;;;;;;;6.50;5.87;;;;;;;16.00;51.97;101322.69;4412628;32;20193;-68
2021/04/21 09:46:53;;;;;;;6.25;5.75;;;;;;;16.13;51.12;101320.06;4413307;32;20084;-68
2021/04/21 09:49:31;;;;;;;5.47;5.18;;;;;;;16.31;50.84;101318.84;4419129;32;20115;-68
2021/04/21 09:51:58;;;;;;;5.22;4.87;;;;;;;16.18;48.32;101327.69;4415882;32;20084;-68
2021/04/21 09:54:36;;;;;;;6.50;5.93;;;;;;;15.61;49.28;101315.47;4425230;32;20103;-68
2021/04/21 09:57:08;;;;;;;5.93;5.53;;;;;;;15.91;50.04;101318.81;4422816;32;20089;-68
2021/04/21 09:59:34;;;;;;;13.45;5.95;;;;;;;15.85;48.38;101319.22;4412399;32;20096;-70
2021/04/21 10:02:00;;;;;;;5.55;5.25;;;;;;;15.69;50.11;101318.47;4421308;32;20088;-69
2021/04/21 10:04:26;;;;;;;5.75;5.45;;;;;;;15.67;47.50;101313.28;4403071;32;20289;-68
2021/04/21 10:06:53;;;;;;;5.22;4.82;;;;;;;16.03;47.35;101318.97;4412337;32;20087;-69
2021/04/21 10:09:34;;;;;;;6.22;4.80;;;;;;;16.34;45.31;101313.34;4424257;32;20073;-69
2021/04/21 10:12:13;;;;;;;4.87;4.68;;;;;;;16.32;45.38;101307.31;4422654;32;20083;-68
2021/04/21 10:14:39;;;;;;;5.78;5.47;;;;;;;16.16;46.52;101309.28;4423772;32;20100;-68
2021/04/21 10:17:04;;;;;;;5.85;5.55;;;;;;;16.15;46.86;101310.22;4410246;32;20087;-68
2021/04/21 10:19:30;;;;;;;5.45;5.15;;;;;;;15.73;46.87;101304.13;4420075;32;20119;-68
2021/04/21 10:21:55;;;;;;;5.70;5.20;;;;;;;15.58;46.97;101311.22;4414288;32;20480;-68
2021/04/21 10:24:20;;;;;;;5.32;5.03;;;;;;;15.72;45.67;101310.34;4417330;32;20129;-68
2021/04/21 10:26:46;;;;;;;5.15;4.87;;;;;;;16.12;45.77;101291.91;4401310;32;20099;-67
2021/04/21 10:29:11;;;;;;;5.65;5.35;;;;;;;16.75;46.08;101306.22;4414989;32;20079;-68
2021/04/21 10:31:37;;;;;;;5.82;5.43;;;;;;;16.94;47.45;101303.19;4413694;32;20717;-67
2021/04/21 10:34:03;;;;;;;5.75;5.45;;;;;;;17.19;46.24;101304.13;4418278;32;20079;-67
2021/04/21 10:36:29;;;;;;;6.68;6.28;;;;;;;16.91;40.20;101308.69;4416107;32;20088;-68
2021/04/21 10:38:54;;;;;;;5.22;5.00;;;;;;;16.77;40.76;101253.09;4431826;32;20107;-68
2021/04/21 10:41:24;;;;;;;6.22;5.82;;;;;;;17.03;38.51;101301.69;4414243;32;20077;-68
2021/04/21 10:43:50;;;;;;;5.57;5.28;;;;;;;17.15;37.32;101301.66;4425084;32;21077;-66
2021/04/21 10:46:15;;;;;;;5.45;5.15;;;;;;;17.48;38.09;101294.94;4405416;32;20064;-65
2021/04/21 10:48:42;;;;;;;4.90;4.70;;;;;;;17.25;37.54;101299.22;4398522;32;20084;-65
2021/04/21 10:51:43;;;;;;;5.62;5.22;;;;;;;17.57;38.64;101295.22;4415509;32;20096;-66
2021/04/21 10:54:08;;;;;;;5.20;5.00;;;;;;;17.77;37.64;101291.13;4369888;32;20066;-66
2021/04/21 10:56:34;;;;;;;6.12;5.70;;;;;;;17.34;37.00;101297.75;4391094;32;20103;-66
2021/04/21 10:59:01;;;;;;;6.55;6.15;;;;;;;17.23;38.11;101290.53;4398815;32;20087;-67
2021/04/21 11:01:30;;;;;;;5.82;5.53;;;;;;;17.49;38.66;101287.81;4404669;32;20191;-66
2021/04/21 11:03:55;;;;;;;5.53;5.22;;;;;;;17.21;33.12;101299.56;4409953;32;20077;-67
2021/04/21 11:06:46;;;;;;;7.80;5.70;;;;;;;17.23;34.71;101302.94;4414164;32;20641;-65
2021/04/21 11:09:12;;;;;;;5.37;5.07;;;;;;;17.37;30.99;101291.34;4418008;32;20088;-66
2021/04/21 11:11:40;;;;;;;5.32;5.03;;;;;;;17.76;35.05;101290.28;4411666;32;20637;-66
2021/04/21 11:14:05;;;;;;;4.93;4.60;;;;;;;18.12;32.04;101312.44;4398336;32;20115;-67
2021/04/21 11:16:31;;;;;;;5.37;5.10;;;;;;;18.28;31.20;101291.75;4407366;32;20102;-67
2021/04/21 11:19:18;;;;;;;5.47;5.17;;;;;;;17.69;31.39;101297.84;4428735;32;20287;-65
2021/04/21 11:21:43;;;;;;;5.22;4.95;;;;;;;17.57;31.50;101295.22;4429204;32;20212;-67
2021/04/21 11:24:09;;;;;;;5.55;5.25;;;;;;;18.26;29.65;101284.84;4398136;32;20081;-67
2021/04/21 11:26:35;;;;;;;4.90;4.70;;;;;;;18.26;29.75;101292.81;4403471;32;20087;-65
2021/04/21 11:29:08;;;;;;;6.28;5.87;;;;;;;17.67;28.97;101293.59;4402635;32;20769;-66
2021/04/21 11:31:39;;;;;;;;;;;;;;;17.92;30.20;101290.87;4406242;32;20356;-68
2021/04/21 11:34:27;;;;;;;4.82;4.62;;;;;;;18.49;30.11;101296.41;4425853;32;20033;-66
2021/04/21 11:37:05;;;;;;;5.05;4.82;;;;;;;18.41;30.73;101277.53;4415071;32;20076;-69
2021/04/21 11:39:43;;;;;;;5.85;5.45;;;;;;;18.28;28.65;101283.78;4417890;32;20610;-67
2021/04/21 11:42:21;;;;;;;5.00;4.80;;;;;;;18.63;28.10;101282.91;4432553;32;20089;-65
2021/04/21 11:44:47;;;;;;;5.45;5.18;;;;;;;19.04;27.27;101272.69;4404346;32;20076;-66
2021/04/21 11:47:28;;;;;;;5.23;4.93;;;;;;;18.23;27.37;101285.09;4436866;32;20740;-68
2021/04/21 11:50:03;;;;;;;5.68;5.37;;;;;;;18.25;26.45;101278.69;4412521;32;20166;-68
2021/04/21 11:52:43;;;;;;;5.30;5.00;;;;;;;18.67;29.73;101279.03;4427111;32;20829;-68